createdAt,value
2022-12-14T00:01:32.235Z,3.38
2022-12-14T00:04:02.075Z,2.67
2022-12-14T00:06:31.979Z,4.03
2022-12-14T00:09:02.153Z,2.55
2022-12-14T00:11:30.633Z,4.45
2022-12-14T00:14:00.599Z,2.35
2022-12-14T00:16:30.768Z,3.55
2022-12-14T00:19:01.999Z,2.25
2022-12-14T00:21:30.727Z,3.10
2022-12-14T00:24:00.483Z,2.15
2022-12-14T00:26:31.110Z,1.77
2022-12-14T00:29:00.657Z,1.80
2022-12-14T00:31:29.114Z,2.90
2022-12-14T00:33:57.495Z,2.30
2022-12-14T00:36:27.119Z,1.50
2022-12-14T00:38:55.291Z,1.05
2022-12-14T00:41:23.459Z,0.65
2022-12-14T00:43:51.774Z,1.73
2022-12-14T00:46:20.478Z,1.92
2022-12-14T00:48:48.759Z,1.20
2022-12-14T00:51:16.773Z,0.77
2022-12-14T00:53:46.447Z,0.95
2022-12-14T00:56:14.697Z,2.42
2022-12-14T00:58:42.740Z,2.92
2022-12-14T01:01:13.614Z,1.55
2022-12-14T01:03:43.290Z,1.20
2022-12-14T01:06:16.035Z,2.70
2022-12-14T01:08:44.339Z,1.05
2022-12-14T01:11:14.552Z,1.70
2022-12-14T01:13:43.874Z,1.30
2022-12-14T01:16:14.503Z,0.60
2022-12-14T01:18:44.466Z,1.35
2022-12-14T01:21:15.303Z,2.20
2022-12-14T01:23:44.974Z,0.57
2022-12-14T01:26:15.822Z,0.88
2022-12-14T01:28:44.188Z,0.75
2022-12-14T01:31:14.580Z,1.33
2022-12-14T01:33:42.944Z,0.73
2022-12-14T01:36:13.282Z,0.73
2022-12-14T01:38:41.875Z,0.60
2022-12-14T01:41:25.811Z,1.10
2022-12-14T01:43:55.965Z,0.47
2022-12-14T01:46:30.834Z,2.22
2022-12-14T01:49:03.286Z,0.73
2022-12-14T01:51:32.899Z,0.85
2022-12-14T01:54:02.856Z,0.70
2022-12-14T01:56:34.995Z,0.30
2022-12-14T01:59:08.509Z,0.93
2022-12-14T02:01:37.030Z,0.40
2022-12-14T02:04:05.908Z,1.95
2022-12-14T02:06:36.153Z,0.95
2022-12-14T02:09:05.861Z,0.47
2022-12-14T02:11:41.696Z,0.45
2022-12-14T02:14:09.849Z,0.30
2022-12-14T02:16:39.147Z,0.45
2022-12-14T02:19:07.364Z,0.90
2022-12-14T02:21:50.608Z,0.35
2022-12-14T02:24:49.094Z,1.65
2022-12-14T02:27:39.643Z,0.95
2022-12-14T02:30:11.890Z,4.38
2022-12-14T02:33:09.624Z,1.02
2022-12-14T02:35:47.602Z,0.32
2022-12-14T02:38:32.627Z,1.30
2022-12-14T02:41:10.490Z,0.90
2022-12-14T02:43:49.987Z,1.52
2022-12-14T02:46:24.613Z,1.27
2022-12-14T02:49:02.650Z,0.55
2022-12-14T02:51:42.466Z,4.00
2022-12-14T02:54:14.613Z,0.85
2022-12-14T02:56:46.521Z,2.63
2022-12-14T02:59:17.098Z,5.07
2022-12-14T03:01:49.087Z,6.70
2022-12-14T03:04:18.003Z,4.38
2022-12-14T03:06:58.013Z,3.60
2022-12-14T03:09:30.103Z,3.22
2022-12-14T03:12:04.838Z,3.58
2022-12-14T03:14:35.658Z,7.10
2022-12-14T03:17:15.256Z,0.98
2022-12-14T03:19:53.881Z,2.05
2022-12-14T03:22:26.317Z,6.40
2022-12-14T03:24:57.583Z,2.53
2022-12-14T03:27:32.705Z,3.33
2022-12-14T03:30:03.843Z,0.93
2022-12-14T03:32:36.586Z,0.93
2022-12-14T03:35:08.689Z,1.98
2022-12-14T03:37:43.102Z,1.60
2022-12-14T03:42:53.668Z,1.75
2022-12-14T03:45:29.148Z,1.50
2022-12-14T03:48:07.989Z,1.52
2022-12-14T03:50:42.406Z,1.55
2022-12-14T03:53:14.801Z,1.85
2022-12-14T03:55:57.026Z,1.60
2022-12-14T03:58:36.184Z,1.13
2022-12-14T04:01:11.876Z,1.50
2022-12-14T04:03:52.614Z,2.10
2022-12-14T04:06:30.320Z,0.77
2022-12-14T04:09:07.585Z,1.58
2022-12-14T04:11:58.965Z,1.17
2022-12-14T04:14:50.146Z,1.35
2022-12-14T04:17:41.482Z,0.52
2022-12-14T04:20:18.671Z,1.48
2022-12-14T04:22:52.884Z,1.50
2022-12-14T04:28:53.367Z,1.50
2022-12-14T04:31:26.323Z,2.00
2022-12-14T04:33:56.306Z,0.93
2022-12-14T04:36:29.407Z,1.50
2022-12-14T04:39:02.037Z,1.08
2022-12-14T04:41:34.325Z,3.80
2022-12-14T04:44:07.541Z,4.07
2022-12-14T04:46:40.773Z,2.05
2022-12-14T04:49:15.259Z,1.23
2022-12-14T04:51:49.977Z,0.63
2022-12-14T04:54:22.462Z,1.40
2022-12-14T04:56:55.728Z,0.68
2022-12-14T04:59:25.236Z,1.03
2022-12-14T05:02:02.712Z,2.75
2022-12-14T05:04:55.017Z,1.75
2022-12-14T05:07:37.569Z,3.70
2022-12-14T05:10:10.845Z,2.03
2022-12-14T05:12:44.141Z,3.25
2022-12-14T05:15:16.451Z,3.38
2022-12-14T05:17:45.980Z,8.40
2022-12-14T05:20:19.438Z,5.10
2022-12-14T05:22:49.658Z,1.30
2022-12-14T05:25:18.145Z,1.45
2022-12-14T05:27:46.766Z,401.05
2022-12-14T05:30:15.276Z,242.25
2022-12-14T05:32:43.388Z,206.23
2022-12-14T05:35:13.450Z,154.43
2022-12-14T05:37:41.975Z,116.78
2022-12-14T05:40:13.059Z,127.68
2022-12-14T05:42:45.930Z,110.15
2022-12-14T05:45:16.708Z,85.93
2022-12-14T05:47:44.974Z,99.47
2022-12-14T05:50:13.321Z,89.15
2022-12-14T05:52:41.371Z,73.93
2022-12-14T05:55:12.024Z,83.53
2022-12-14T05:57:40.319Z,62.33
2022-12-14T06:00:09.928Z,56.75
2022-12-14T06:02:38.225Z,44.78
2022-12-14T06:05:06.938Z,47.90
2022-12-14T06:07:35.333Z,41.95
2022-12-14T06:10:03.461Z,41.95
2022-12-14T06:12:33.371Z,40.50
2022-12-14T06:15:01.419Z,37.70
2022-12-14T06:17:29.820Z,36.50
2022-12-14T06:19:57.857Z,28.88
2022-12-14T06:22:26.598Z,34.00
2022-12-14T06:24:54.617Z,34.03
2022-12-14T06:27:22.785Z,29.73
2022-12-14T06:29:52.486Z,29.40
2022-12-14T06:32:20.695Z,26.20
2022-12-14T06:34:48.865Z,21.15
2022-12-14T06:37:17.019Z,19.70
2022-12-14T06:39:46.488Z,18.75
2022-12-14T06:42:20.855Z,17.80
2022-12-14T06:44:49.225Z,23.95
2022-12-14T06:47:18.595Z,20.02
2022-12-14T06:49:46.925Z,16.60
2022-12-14T06:52:18.760Z,14.55
2022-12-14T06:54:49.150Z,16.08
2022-12-14T06:57:17.221Z,15.20
2022-12-14T06:59:45.597Z,10.90
2022-12-14T07:02:13.972Z,15.10
2022-12-14T07:04:44.342Z,10.85
2022-12-14T07:07:12.698Z,16.83
2022-12-14T07:09:40.765Z,22.50
2022-12-14T07:12:08.997Z,14.60
2022-12-14T07:14:37.141Z,10.38
2022-12-14T07:17:05.463Z,11.20
2022-12-14T07:19:33.554Z,9.43
2022-12-14T07:22:04.261Z,9.30
2022-12-14T07:24:32.367Z,10.23
2022-12-14T07:27:00.689Z,10.10
2022-12-14T07:29:34.389Z,7.60
2022-12-14T07:34:31.330Z,8.73
2022-12-14T07:36:59.523Z,7.60
2022-12-14T07:39:29.540Z,8.48
2022-12-14T07:41:57.624Z,7.07
2022-12-14T07:44:25.969Z,6.38
2022-12-14T07:46:54.562Z,5.20
2022-12-14T07:49:22.964Z,8.30
2022-12-14T07:51:52.927Z,5.82
2022-12-14T07:54:21.452Z,6.72
2022-12-14T07:56:50.907Z,5.43
2022-12-14T07:59:19.443Z,7.45
2022-12-14T08:01:48.073Z,3.25
2022-12-14T08:04:18.476Z,4.82
2022-12-14T08:06:48.269Z,4.72
2022-12-14T08:09:17.268Z,5.97
2022-12-14T08:11:45.727Z,4.00
2022-12-14T08:14:18.052Z,3.47
2022-12-14T08:16:47.510Z,6.20
2022-12-14T08:19:16.288Z,1.98
2022-12-14T08:21:45.882Z,3.13
2022-12-14T08:24:17.026Z,3.72
2022-12-14T08:26:47.244Z,4.65
2022-12-14T08:29:19.478Z,6.40
2022-12-14T08:31:47.673Z,3.05
2022-12-14T08:34:22.222Z,2.25
2022-12-14T08:36:50.334Z,3.58
2022-12-14T08:39:18.773Z,3.42
2022-12-14T08:41:46.821Z,3.22
2022-12-14T08:44:17.152Z,1.63
2022-12-14T08:46:46.624Z,0.95
2022-12-14T08:49:15.073Z,1.77
2022-12-14T08:54:25.481Z,1.45
2022-12-14T08:56:53.857Z,4.93
2022-12-14T08:59:51.943Z,1.33
2022-12-14T09:02:12.508Z,0.98
2022-12-14T09:04:40.736Z,2.47
2022-12-14T09:07:09.129Z,1.20
2022-12-14T09:09:37.631Z,1.45
2022-12-14T09:12:07.546Z,0.85
2022-12-14T09:14:36.264Z,1.42
2022-12-14T09:17:05.128Z,0.75
2022-12-14T09:19:34.822Z,1.83
2022-12-14T09:22:02.941Z,1.00
2022-12-14T09:24:31.443Z,0.95
2022-12-14T09:27:00.572Z,1.60
2022-12-14T09:29:30.040Z,1.65
2022-12-14T09:31:58.360Z,0.73
2022-12-14T09:34:26.513Z,2.53
2022-12-14T09:36:56.260Z,0.60
2022-12-14T09:39:24.355Z,0.55
2022-12-14T09:42:06.188Z,0.25
2022-12-14T09:44:47.385Z,0.32
2022-12-14T09:47:20.888Z,0.55
2022-12-14T09:49:52.607Z,1.47
2022-12-14T09:52:27.309Z,0.43
2022-12-14T09:54:57.350Z,0.30
2022-12-14T09:57:31.654Z,0.20
2022-12-14T10:02:39.175Z,0.43
2022-12-14T10:05:25.400Z,0.13
2022-12-14T10:08:05.020Z,2.28
2022-12-14T10:10:43.912Z,0.82
2022-12-14T10:13:26.741Z,0.47
2022-12-14T10:16:06.416Z,0.20
2022-12-14T10:19:02.719Z,0.30
2022-12-14T10:21:42.496Z,0.30
2022-12-14T10:24:17.677Z,0.10
2022-12-14T10:26:50.105Z,0.17
2022-12-14T10:29:25.865Z,0.05
2022-12-14T10:32:00.910Z,0.50
2022-12-14T10:34:31.813Z,0.52
2022-12-14T10:37:10.435Z,0.20
2022-12-14T10:39:49.427Z,1.15
2022-12-14T10:42:24.950Z,0.50
2022-12-14T10:45:39.073Z,0.10
2022-12-14T10:48:01.605Z,0.40
2022-12-14T10:50:40.241Z,0.10
2022-12-14T10:53:18.724Z,0.13
2022-12-14T10:55:48.587Z,0.10
2022-12-14T10:58:16.799Z,0.30
2022-12-14T11:00:45.099Z,0.30
2022-12-14T11:03:16.094Z,1.00
2022-12-14T11:05:53.280Z,0.10
2022-12-14T11:08:40.505Z,0.52
2022-12-14T11:11:19.248Z,0.20
2022-12-14T11:13:52.549Z,0.40
2022-12-14T11:16:33.609Z,0.30
2022-12-14T11:19:04.156Z,0.10
2022-12-14T11:21:34.781Z,0.10
2022-12-14T11:24:03.148Z,0.10
2022-12-14T11:26:36.448Z,0.20
2022-12-14T11:29:07.337Z,0.10
2022-12-14T11:31:39.148Z,0.10
2022-12-14T11:34:22.342Z,0.32
2022-12-14T11:36:50.794Z,0.10
2022-12-14T11:39:23.177Z,0.20
2022-12-14T11:42:01.893Z,0.30
2022-12-14T11:44:33.501Z,0.03
2022-12-14T11:47:04.563Z,0.03
2022-12-14T11:49:37.169Z,0.43
2022-12-14T11:52:11.971Z,0.10
2022-12-14T11:54:41.806Z,0.43
2022-12-14T11:57:22.304Z,0.20
2022-12-14T11:59:53.385Z,0.60
2022-12-14T12:02:28.421Z,0.10
2022-12-14T12:05:01.287Z,0.25
2022-12-14T12:07:33.759Z,0.30
2022-12-14T12:10:08.203Z,0.00
2022-12-14T12:12:37.853Z,0.10
2022-12-14T12:15:07.033Z,0.30
2022-12-14T12:17:40.482Z,0.10
2022-12-14T12:20:27.071Z,0.10
2022-12-14T12:23:01.536Z,0.00
2022-12-14T12:25:37.589Z,0.10
2022-12-14T12:28:16.896Z,0.10
2022-12-14T12:30:49.437Z,0.10
2022-12-14T12:33:27.498Z,0.05
2022-12-14T12:35:57.441Z,0.10
2022-12-14T12:38:41.951Z,0.08
2022-12-14T12:41:18.743Z,0.03
2022-12-14T12:43:54.651Z,0.00
2022-12-14T12:46:28.532Z,0.10
2022-12-14T12:49:03.604Z,0.03
2022-12-14T12:51:40.553Z,0.00
2022-12-14T12:54:15.479Z,0.00
2022-12-14T12:56:48.094Z,0.00
2022-12-14T12:59:20.683Z,0.10
2022-12-14T13:01:53.613Z,0.28
2022-12-14T13:04:30.458Z,0.85
2022-12-14T13:07:01.515Z,0.10
2022-12-14T13:09:39.418Z,0.32
2022-12-14T13:12:14.840Z,0.00
2022-12-14T13:14:49.609Z,0.10
2022-12-14T13:17:31.205Z,0.00
2022-12-14T13:20:03.826Z,0.05
2022-12-14T13:22:35.665Z,0.10
2022-12-14T13:25:10.273Z,0.10
2022-12-14T13:28:13.929Z,0.05
2022-12-14T13:30:58.528Z,0.05
2022-12-14T13:37:07.994Z,0.10
2022-12-14T13:40:08.708Z,0.00
2022-12-14T13:42:52.106Z,0.03
2022-12-14T13:45:23.067Z,0.10
2022-12-14T13:47:55.484Z,0.10
2022-12-14T13:50:38.439Z,0.10
2022-12-14T13:53:28.784Z,0.00
2022-12-14T13:55:58.416Z,0.10
2022-12-14T13:58:34.799Z,0.00
2022-12-14T14:01:04.176Z,0.10
2022-12-14T14:04:14.493Z,0.10
2022-12-14T14:06:44.970Z,0.10
2022-12-14T14:09:59.742Z,0.13
2022-12-14T14:12:44.403Z,0.10
2022-12-14T14:15:34.529Z,0.03
2022-12-14T14:18:16.877Z,0.10
2022-12-14T14:20:47.874Z,0.00
2022-12-14T14:23:39.462Z,0.10
2022-12-14T14:26:32.195Z,0.00
2022-12-14T14:29:19.214Z,0.00
2022-12-14T14:31:51.816Z,0.00
2022-12-14T14:34:25.386Z,0.10
2022-12-14T14:36:53.892Z,0.05
2022-12-14T14:42:25.291Z,0.10
2022-12-14T14:44:56.309Z,0.10
2022-12-14T14:47:29.736Z,0.10
2022-12-14T14:50:07.696Z,0.20
2022-12-14T14:53:12.392Z,0.25
2022-12-14T14:55:54.074Z,0.00
2022-12-14T14:58:36.342Z,0.10
2022-12-14T15:01:24.857Z,0.10
2022-12-14T15:03:57.440Z,0.10
2022-12-14T15:06:29.486Z,0.20
2022-12-14T15:09:03.318Z,0.00
2022-12-14T15:11:42.767Z,0.15
2022-12-14T15:14:32.635Z,0.00
2022-12-14T15:17:13.329Z,0.20
2022-12-14T15:19:48.025Z,0.10
2022-12-14T15:22:18.559Z,0.20
2022-12-14T15:24:49.332Z,0.10
2022-12-14T15:27:26.083Z,0.20
2022-12-14T15:29:55.824Z,0.10
2022-12-14T15:32:26.042Z,0.10
2022-12-14T15:34:57.748Z,0.10
2022-12-14T15:37:29.686Z,0.10
2022-12-14T15:40:04.122Z,0.28
2022-12-14T15:42:33.740Z,0.03
2022-12-14T15:45:10.143Z,0.10
2022-12-14T15:47:38.363Z,0.10
2022-12-14T15:50:22.594Z,0.00
2022-12-14T15:52:53.126Z,0.15
2022-12-14T15:55:30.800Z,0.10
2022-12-14T15:58:06.792Z,0.08
2022-12-14T16:00:41.541Z,0.10
2022-12-14T16:03:24.096Z,0.20
2022-12-14T16:05:52.313Z,0.22
2022-12-14T16:08:22.555Z,0.00
2022-12-14T16:10:52.777Z,0.10
2022-12-14T16:13:29.028Z,0.00
2022-12-14T16:15:58.750Z,0.08
2022-12-14T16:18:27.660Z,0.00
2022-12-14T16:21:02.079Z,0.10
2022-12-14T16:26:23.431Z,0.20
2022-12-14T16:29:08.879Z,0.20
2022-12-14T16:31:38.142Z,2.00
2022-12-14T16:34:09.729Z,2.80
2022-12-14T16:36:38.498Z,0.52
2022-12-14T16:39:15.126Z,0.63
2022-12-14T16:41:46.308Z,0.45
2022-12-14T16:44:23.116Z,0.90
2022-12-14T16:47:23.217Z,0.52
2022-12-14T16:49:56.634Z,1.58
2022-12-14T16:52:28.939Z,2.75
2022-12-14T16:55:13.398Z,1.98
2022-12-14T16:57:51.918Z,0.40
2022-12-14T17:00:24.745Z,0.52
2022-12-14T17:02:58.647Z,3.58
2022-12-14T17:05:30.813Z,0.65
2022-12-14T17:07:58.998Z,0.32
2022-12-14T17:10:28.464Z,0.88
2022-12-14T17:12:58.783Z,1.65
2022-12-14T17:15:30.788Z,1.40
2022-12-14T17:18:00.826Z,0.68
2022-12-14T17:20:31.110Z,1.55
2022-12-14T17:23:02.011Z,0.60
2022-12-14T17:25:32.216Z,0.30
2022-12-14T17:28:01.268Z,2.15
2022-12-14T17:30:38.398Z,5.75
2022-12-14T17:33:06.716Z,15.40
2022-12-14T17:35:34.707Z,14.10
2022-12-14T17:38:02.918Z,14.77
2022-12-14T17:40:30.985Z,19.15
2022-12-14T17:42:59.922Z,15.70
2022-12-14T17:45:31.113Z,37.92
2022-12-14T17:47:59.538Z,21.90
2022-12-14T17:50:27.782Z,22.10
2022-12-14T17:52:56.025Z,27.40
2022-12-14T17:55:26.286Z,26.38
2022-12-14T17:57:55.496Z,14.60
2022-12-14T18:00:43.428Z,17.48
2022-12-14T18:03:14.464Z,25.88
2022-12-14T18:05:48.605Z,9.30
2022-12-14T18:10:45.864Z,14.05
2022-12-14T18:13:15.402Z,8.98
2022-12-14T18:15:50.086Z,14.15
2022-12-14T18:18:20.264Z,10.43
2022-12-14T18:20:51.630Z,17.70
2022-12-14T18:23:20.647Z,8.82
2022-12-14T18:25:50.514Z,9.13
2022-12-14T18:28:19.378Z,9.50
2022-12-14T18:30:50.892Z,8.75
2022-12-14T18:33:22.374Z,8.88
2022-12-14T18:35:51.592Z,7.40
2022-12-14T18:38:19.695Z,7.90
2022-12-14T18:40:50.215Z,7.85
2022-12-14T18:43:19.977Z,8.75
2022-12-14T18:45:48.351Z,8.38
2022-12-14T18:48:16.633Z,5.15
2022-12-14T18:50:46.463Z,8.75
2022-12-14T18:53:19.313Z,7.65
2022-12-14T18:55:48.053Z,9.73
2022-12-14T18:58:18.035Z,4.18
2022-12-14T19:00:47.173Z,8.73
2022-12-14T19:03:16.129Z,4.63
2022-12-14T19:05:47.036Z,4.15
2022-12-14T19:08:15.178Z,11.38
2022-12-14T19:10:45.523Z,4.43
2022-12-14T19:13:21.777Z,6.75
2022-12-14T19:15:53.711Z,6.18
2022-12-14T19:18:24.743Z,4.38
2022-12-14T19:20:54.345Z,3.20
2022-12-14T19:23:22.437Z,2.00
2022-12-14T19:25:50.778Z,6.65
2022-12-14T19:28:32.520Z,5.13
2022-12-14T19:31:02.185Z,3.22
2022-12-14T19:33:30.955Z,7.72
2022-12-14T19:36:01.272Z,2.55
2022-12-14T19:38:29.838Z,3.40
2022-12-14T19:41:01.081Z,4.10
2022-12-14T19:43:30.312Z,7.45
2022-12-14T19:45:59.055Z,2.65
2022-12-14T19:48:27.123Z,3.58
2022-12-14T19:50:55.465Z,1.75
2022-12-14T19:53:24.941Z,3.78
2022-12-14T19:55:54.129Z,2.78
2022-12-14T19:58:24.888Z,1.65
2022-12-14T20:00:53.443Z,3.88
2022-12-14T20:03:22.265Z,1.02
2022-12-14T20:05:52.497Z,2.13
2022-12-14T20:08:21.245Z,3.42
2022-12-14T20:10:52.756Z,6.00
2022-12-14T20:13:21.204Z,2.15
2022-12-14T20:15:50.579Z,3.00
2022-12-14T20:18:19.164Z,2.42
2022-12-14T20:20:49.485Z,1.17
2022-12-14T20:23:18.746Z,3.13
2022-12-14T20:25:46.950Z,4.95
2022-12-14T20:28:16.733Z,8.43
2022-12-14T20:30:45.592Z,9.70
2022-12-14T20:33:13.929Z,12.52
2022-12-14T20:35:42.073Z,14.23
2022-12-14T20:38:10.321Z,7.20
2022-12-14T20:40:39.404Z,5.30
2022-12-14T20:43:08.001Z,7.35
2022-12-14T20:45:40.292Z,10.93
2022-12-14T20:48:09.574Z,6.07
2022-12-14T20:50:38.704Z,5.97
2022-12-14T20:53:07.474Z,4.88
2022-12-14T20:55:36.140Z,4.88
2022-12-14T20:58:05.508Z,4.05
2022-12-14T21:00:33.655Z,7.03
2022-12-14T21:03:05.143Z,5.35
2022-12-14T21:05:33.425Z,3.90
2022-12-14T21:08:01.693Z,6.10
2022-12-14T21:10:29.817Z,9.27
2022-12-14T21:12:57.106Z,8.07
2022-12-14T21:15:25.160Z,8.48
2022-12-14T21:17:53.501Z,3.45
2022-12-14T21:20:23.491Z,4.78
2022-12-14T21:22:51.861Z,6.05
2022-12-14T21:25:20.004Z,3.38
2022-12-14T21:27:48.378Z,3.42
2022-12-14T21:30:17.093Z,6.55
2022-12-14T21:32:45.246Z,5.43
2022-12-14T21:35:17.680Z,2.22
2022-12-14T21:37:47.121Z,4.53
2022-12-14T21:40:35.871Z,1.48
2022-12-14T21:43:03.939Z,5.55
2022-12-14T21:45:32.371Z,1.50
2022-12-14T21:48:00.587Z,4.55
2022-12-14T21:50:28.932Z,2.47
2022-12-14T21:52:58.316Z,3.05
2022-12-14T21:55:26.687Z,3.08
2022-12-14T21:58:12.032Z,0.98
2022-12-14T22:00:40.264Z,1.70
2022-12-14T22:03:08.459Z,3.97
2022-12-14T22:05:39.422Z,3.92
2022-12-14T22:08:08.867Z,1.70
2022-12-14T22:10:37.214Z,1.52
2022-12-14T22:13:05.254Z,2.00
2022-12-14T22:15:33.663Z,2.55
2022-12-14T22:18:01.711Z,0.60
2022-12-14T22:20:30.800Z,2.03
2022-12-14T22:22:59.945Z,2.22
2022-12-14T22:25:29.523Z,4.25
2022-12-14T22:27:57.585Z,1.90
2022-12-14T22:30:31.681Z,0.32
2022-12-14T22:33:00.183Z,1.30
2022-12-14T22:35:28.581Z,0.90
2022-12-14T22:37:56.663Z,1.45
2022-12-14T22:40:24.951Z,0.98
2022-12-14T22:42:54.379Z,1.08
2022-12-14T22:45:22.791Z,0.85
2022-12-14T22:47:50.877Z,5.22
2022-12-14T22:50:19.295Z,3.13
2022-12-14T22:52:49.772Z,2.22
2022-12-14T22:55:18.538Z,5.68
2022-12-14T22:57:48.708Z,4.93
2022-12-14T23:00:18.743Z,4.82
2022-12-14T23:02:48.798Z,3.08
2022-12-14T23:05:18.540Z,1.98
2022-12-14T23:07:46.802Z,3.97
2022-12-14T23:10:32.428Z,6.68
2022-12-14T23:13:17.923Z,3.00
2022-12-14T23:16:05.052Z,1.30
2022-12-14T23:18:50.504Z,2.90
2022-12-14T23:21:36.501Z,2.45
2022-12-14T23:24:22.428Z,3.10
2022-12-14T23:27:09.877Z,1.13
2022-12-14T23:29:55.842Z,1.63
2022-12-14T23:32:42.523Z,1.73
2022-12-14T23:35:28.133Z,2.38
2022-12-14T23:38:13.534Z,2.13
2022-12-14T23:40:59.187Z,0.55
2022-12-14T23:43:44.794Z,2.45
2022-12-14T23:46:30.479Z,1.48
2022-12-14T23:49:17.638Z,0.80
2022-12-14T23:52:03.220Z,1.27
2022-12-14T23:54:49.212Z,1.65
2022-12-14T23:57:35.392Z,2.63
